VTSS/HDY METAR and TAF weather

Enter ICAO airport designator
Station Type Date Time Source
VTSS METAR 2022/06/28 08:00 UTC NOAA

VTSS 280800Z 26009KT 9999 FEW020 33/24 Q1005 NOSIG


Station Type Date Time Source
VTSS Decoded METAR 2022/06/28 08:00 UTC NOAA

Hat Yai, Thailand (VTSS) 06-55N 100-26E 35M
Jun 28, 2022 - 04:00 AM EDT / 2022.06.28 0800 UTC
Wind: from the W (260 degrees) at 10 MPH (9 KT):0
Visibility: greater than 7 mile(s):0
Sky conditions: mostly clear
Temperature: 91 F (33 C)
Heat index: 101.5 F (38.6 C):1
Dew Point: 75 F (24 C)
Relative Humidity: 59%
Pressure (altimeter): 29.68 in. Hg (1005 hPa)
ob: VTSS 280800Z 26009KT 9999 FEW020 33/24 Q1005 NOSIG
cycle: 8

Station Type Date Time Source
VTSS TAF 2022/06/28 06:37 UTC NOAA

TAF VTSS 280500Z 2806/2906 25008KT 9999 SCT020 PROB40
TEMPO 2806/2815 VRB15G25KT 4000 TSRA FEW016CB SCT018 BKN100

Example: see airport list